sensor_id;sensor_type;location;lat;lon;timestamp;P1;durP1;ratioP1;P2;durP2;ratioP2
52590;SDS011;38483;42.620;25.394;2024-01-10T00:01:05;7.53;;;3.60;;
52590;SDS011;38483;42.620;25.394;2024-01-10T00:03:32;4.57;;;2.93;;
52590;SDS011;38483;42.620;25.394;2024-01-10T00:06:00;7.57;;;3.70;;
52590;SDS011;38483;42.620;25.394;2024-01-10T00:08:30;9.00;;;3.87;;
52590;SDS011;38483;42.620;25.394;2024-01-10T00:10:57;8.10;;;3.57;;
52590;SDS011;38483;42.620;25.394;2024-01-10T00:13:24;4.73;;;2.90;;
52590;SDS011;38483;42.620;25.394;2024-01-10T00:15:51;6.37;;;3.27;;
52590;SDS011;38483;42.620;25.394;2024-01-10T00:18:18;5.40;;;3.10;;
52590;SDS011;38483;42.620;25.394;2024-01-10T00:20:46;8.47;;;3.93;;
52590;SDS011;38483;42.620;25.394;2024-01-10T00:23:14;12.37;;;4.50;;
52590;SDS011;38483;42.620;25.394;2024-01-10T00:25:41;8.53;;;3.93;;
52590;SDS011;38483;42.620;25.394;2024-01-10T00:28:08;7.50;;;3.87;;
52590;SDS011;38483;42.620;25.394;2024-01-10T00:30:35;6.63;;;3.20;;
52590;SDS011;38483;42.620;25.394;2024-01-10T00:33:02;7.10;;;3.43;;
52590;SDS011;38483;42.620;25.394;2024-01-10T00:35:30;8.90;;;4.00;;
52590;SDS011;38483;42.620;25.394;2024-01-10T00:37:57;6.97;;;3.63;;
52590;SDS011;38483;42.620;25.394;2024-01-10T00:40:24;7.67;;;4.07;;
52590;SDS011;38483;42.620;25.394;2024-01-10T00:42:51;7.30;;;3.50;;
52590;SDS011;38483;42.620;25.394;2024-01-10T00:45:18;6.10;;;3.20;;
52590;SDS011;38483;42.620;25.394;2024-01-10T00:47:45;6.67;;;3.23;;
52590;SDS011;38483;42.620;25.394;2024-01-10T00:50:12;6.47;;;3.17;;
52590;SDS011;38483;42.620;25.394;2024-01-10T00:52:40;8.97;;;3.73;;
52590;SDS011;38483;42.620;25.394;2024-01-10T00:55:07;8.93;;;4.00;;
52590;SDS011;38483;42.620;25.394;2024-01-10T00:57:34;10.17;;;4.27;;
52590;SDS011;38483;42.620;25.394;2024-01-10T01:00:01;8.37;;;3.83;;
52590;SDS011;38483;42.620;25.394;2024-01-10T01:02:30;8.90;;;4.20;;
52590;SDS011;38483;42.620;25.394;2024-01-10T01:04:57;11.10;;;4.13;;
52590;SDS011;38483;42.620;25.394;2024-01-10T01:07:24;7.27;;;3.30;;
52590;SDS011;38483;42.620;25.394;2024-01-10T01:09:52;8.30;;;3.60;;
52590;SDS011;38483;42.620;25.394;2024-01-10T01:12:19;5.33;;;3.30;;
52590;SDS011;38483;42.620;25.394;2024-01-10T01:14:46;3.83;;;2.60;;
52590;SDS011;38483;42.620;25.394;2024-01-10T01:17:13;4.40;;;2.80;;
52590;SDS011;38483;42.620;25.394;2024-01-10T01:19:40;4.10;;;2.70;;
52590;SDS011;38483;42.620;25.394;2024-01-10T01:22:07;5.67;;;2.87;;
52590;SDS011;38483;42.620;25.394;2024-01-10T01:24:35;3.80;;;2.37;;
52590;SDS011;38483;42.620;25.394;2024-01-10T01:27:02;4.77;;;2.67;;
52590;SDS011;38483;42.620;25.394;2024-01-10T01:29:30;6.03;;;3.20;;
52590;SDS011;38483;42.620;25.394;2024-01-10T01:31:57;5.80;;;3.23;;
52590;SDS011;38483;42.620;25.394;2024-01-10T01:34:24;17.47;;;3.40;;
52590;SDS011;38483;42.620;25.394;2024-01-10T01:36:51;6.53;;;3.77;;
52590;SDS011;38483;42.620;25.394;2024-01-10T01:39:18;5.47;;;3.57;;
52590;SDS011;38483;42.620;25.394;2024-01-10T01:41:46;4.40;;;2.80;;
52590;SDS011;38483;42.620;25.394;2024-01-10T01:44:14;5.83;;;3.40;;
52590;SDS011;38483;42.620;25.394;2024-01-10T01:46:41;6.50;;;3.33;;
52590;SDS011;38483;42.620;25.394;2024-01-10T01:49:09;6.03;;;3.40;;
52590;SDS011;38483;42.620;25.394;2024-01-10T01:51:37;5.47;;;3.07;;
52590;SDS011;38483;42.620;25.394;2024-01-10T01:54:06;5.53;;;3.37;;
52590;SDS011;38483;42.620;25.394;2024-01-10T01:56:38;4.83;;;3.03;;
52590;SDS011;38483;42.620;25.394;2024-01-10T01:59:06;6.30;;;2.90;;
52590;SDS011;38483;42.620;25.394;2024-01-10T02:01:34;5.90;;;3.20;;
52590;SDS011;38483;42.620;25.394;2024-01-10T02:04:02;6.80;;;3.77;;
52590;SDS011;38483;42.620;25.394;2024-01-10T02:06:29;5.57;;;3.20;;
52590;SDS011;38483;42.620;25.394;2024-01-10T02:08:57;6.33;;;3.30;;
52590;SDS011;38483;42.620;25.394;2024-01-10T02:11:25;4.97;;;3.00;;
52590;SDS011;38483;42.620;25.394;2024-01-10T02:13:52;4.17;;;2.60;;
52590;SDS011;38483;42.620;25.394;2024-01-10T02:16:22;4.50;;;2.70;;
52590;SDS011;38483;42.620;25.394;2024-01-10T02:18:51;5.20;;;2.97;;
52590;SDS011;38483;42.620;25.394;2024-01-10T02:21:21;5.43;;;3.50;;
52590;SDS011;38483;42.620;25.394;2024-01-10T02:23:49;5.50;;;3.63;;
52590;SDS011;38483;42.620;25.394;2024-01-10T02:26:16;5.93;;;3.57;;
52590;SDS011;38483;42.620;25.394;2024-01-10T02:28:43;6.37;;;3.37;;
52590;SDS011;38483;42.620;25.394;2024-01-10T02:31:10;5.77;;;3.37;;
52590;SDS011;38483;42.620;25.394;2024-01-10T02:33:38;4.37;;;3.00;;
52590;SDS011;38483;42.620;25.394;2024-01-10T02:36:06;6.80;;;3.70;;
52590;SDS011;38483;42.620;25.394;2024-01-10T02:38:33;6.03;;;3.13;;
52590;SDS011;38483;42.620;25.394;2024-01-10T02:41:00;8.53;;;4.13;;
52590;SDS011;38483;42.620;25.394;2024-01-10T02:43:29;8.47;;;4.40;;
52590;SDS011;38483;42.620;25.394;2024-01-10T02:45:57;8.40;;;3.73;;
52590;SDS011;38483;42.620;25.394;2024-01-10T02:48:25;6.63;;;3.47;;
52590;SDS011;38483;42.620;25.394;2024-01-10T02:50:53;7.27;;;3.63;;
52590;SDS011;38483;42.620;25.394;2024-01-10T02:53:21;8.10;;;3.50;;
52590;SDS011;38483;42.620;25.394;2024-01-10T02:55:48;6.33;;;2.83;;
52590;SDS011;38483;42.620;25.394;2024-01-10T02:58:16;5.03;;;3.10;;
52590;SDS011;38483;42.620;25.394;2024-01-10T03:00:44;4.33;;;3.07;;
52590;SDS011;38483;42.620;25.394;2024-01-10T03:03:11;3.63;;;2.83;;
52590;SDS011;38483;42.620;25.394;2024-01-10T03:05:38;3.47;;;2.43;;
52590;SDS011;38483;42.620;25.394;2024-01-10T03:08:06;4.27;;;2.63;;
52590;SDS011;38483;42.620;25.394;2024-01-10T03:10:33;7.73;;;4.07;;
52590;SDS011;38483;42.620;25.394;2024-01-10T03:13:00;6.30;;;3.70;;
52590;SDS011;38483;42.620;25.394;2024-01-10T03:15:27;6.57;;;4.00;;
52590;SDS011;38483;42.620;25.394;2024-01-10T03:17:54;12.17;;;5.30;;
52590;SDS011;38483;42.620;25.394;2024-01-10T03:20:22;7.47;;;4.20;;
52590;SDS011;38483;42.620;25.394;2024-01-10T03:22:49;19.47;;;3.37;;
52590;SDS011;38483;42.620;25.394;2024-01-10T03:25:16;6.90;;;4.17;;
52590;SDS011;38483;42.620;25.394;2024-01-10T03:27:43;5.27;;;4.00;;
52590;SDS011;38483;42.620;25.394;2024-01-10T03:30:10;7.23;;;4.50;;
52590;SDS011;38483;42.620;25.394;2024-01-10T03:32:38;10.47;;;5.40;;
52590;SDS011;38483;42.620;25.394;2024-01-10T03:35:05;12.23;;;6.33;;
52590;SDS011;38483;42.620;25.394;2024-01-10T03:37:33;7.10;;;4.40;;
52590;SDS011;38483;42.620;25.394;2024-01-10T03:40:00;6.83;;;4.13;;
52590;SDS011;38483;42.620;25.394;2024-01-10T03:42:30;8.23;;;4.07;;
52590;SDS011;38483;42.620;25.394;2024-01-10T03:44:57;5.40;;;3.63;;
52590;SDS011;38483;42.620;25.394;2024-01-10T03:47:24;6.20;;;3.93;;
52590;SDS011;38483;42.620;25.394;2024-01-10T03:49:51;7.57;;;4.43;;
52590;SDS011;38483;42.620;25.394;2024-01-10T03:52:18;9.27;;;4.67;;
52590;SDS011;38483;42.620;25.394;2024-01-10T03:54:45;6.50;;;4.33;;
52590;SDS011;38483;42.620;25.394;2024-01-10T03:57:12;8.60;;;5.03;;
52590;SDS011;38483;42.620;25.394;2024-01-10T03:59:39;9.30;;;4.90;;
52590;SDS011;38483;42.620;25.394;2024-01-10T04:02:07;7.80;;;5.40;;
52590;SDS011;38483;42.620;25.394;2024-01-10T04:04:36;10.40;;;5.73;;
52590;SDS011;38483;42.620;25.394;2024-01-10T04:07:04;12.20;;;5.73;;
52590;SDS011;38483;42.620;25.394;2024-01-10T04:09:31;12.97;;;6.63;;
52590;SDS011;38483;42.620;25.394;2024-01-10T04:11:58;9.07;;;5.20;;
52590;SDS011;38483;42.620;25.394;2024-01-10T04:14:25;7.70;;;4.80;;
52590;SDS011;38483;42.620;25.394;2024-01-10T04:16:53;6.60;;;4.20;;
52590;SDS011;38483;42.620;25.394;2024-01-10T04:19:20;12.57;;;6.80;;
52590;SDS011;38483;42.620;25.394;2024-01-10T04:21:48;13.40;;;6.83;;
52590;SDS011;38483;42.620;25.394;2024-01-10T04:24:15;9.87;;;5.43;;
52590;SDS011;38483;42.620;25.394;2024-01-10T04:26:42;11.50;;;5.93;;
52590;SDS011;38483;42.620;25.394;2024-01-10T04:29:09;11.23;;;5.70;;
52590;SDS011;38483;42.620;25.394;2024-01-10T04:31:36;11.83;;;5.77;;
52590;SDS011;38483;42.620;25.394;2024-01-10T04:34:03;13.70;;;5.23;;
52590;SDS011;38483;42.620;25.394;2024-01-10T04:36:31;12.53;;;5.70;;
52590;SDS011;38483;42.620;25.394;2024-01-10T04:38:58;10.10;;;5.33;;
52590;SDS011;38483;42.620;25.394;2024-01-10T04:41:25;9.47;;;4.77;;
52590;SDS011;38483;42.620;25.394;2024-01-10T04:43:52;7.93;;;4.60;;
52590;SDS011;38483;42.620;25.394;2024-01-10T04:46:19;9.20;;;4.77;;
52590;SDS011;38483;42.620;25.394;2024-01-10T04:48:46;9.30;;;5.07;;
52590;SDS011;38483;42.620;25.394;2024-01-10T04:51:14;13.20;;;5.43;;
52590;SDS011;38483;42.620;25.394;2024-01-10T04:53:41;13.47;;;6.27;;
52590;SDS011;38483;42.620;25.394;2024-01-10T04:56:08;9.57;;;4.50;;
52590;SDS011;38483;42.620;25.394;2024-01-10T04:58:35;10.60;;;5.10;;
52590;SDS011;38483;42.620;25.394;2024-01-10T05:01:03;10.83;;;5.40;;
52590;SDS011;38483;42.620;25.394;2024-01-10T05:03:31;15.10;;;6.33;;
52590;SDS011;38483;42.620;25.394;2024-01-10T05:05:58;13.20;;;5.60;;
52590;SDS011;38483;42.620;25.394;2024-01-10T05:08:25;9.10;;;5.13;;
52590;SDS011;38483;42.620;25.394;2024-01-10T05:10:53;11.67;;;6.13;;
52590;SDS011;38483;42.620;25.394;2024-01-10T05:13:20;11.50;;;4.80;;
52590;SDS011;38483;42.620;25.394;2024-01-10T05:15:47;11.70;;;5.63;;
52590;SDS011;38483;42.620;25.394;2024-01-10T05:18:14;18.53;;;5.87;;
52590;SDS011;38483;42.620;25.394;2024-01-10T05:20:42;16.13;;;6.43;;
52590;SDS011;38483;42.620;25.394;2024-01-10T05:23:09;14.00;;;6.23;;
52590;SDS011;38483;42.620;25.394;2024-01-10T05:25:37;11.73;;;5.83;;
52590;SDS011;38483;42.620;25.394;2024-01-10T05:28:04;13.83;;;5.87;;
52590;SDS011;38483;42.620;25.394;2024-01-10T05:30:32;18.23;;;5.80;;
52590;SDS011;38483;42.620;25.394;2024-01-10T05:32:59;18.30;;;6.90;;
52590;SDS011;38483;42.620;25.394;2024-01-10T05:35:27;11.43;;;5.00;;
52590;SDS011;38483;42.620;25.394;2024-01-10T05:37:55;15.50;;;5.80;;
52590;SDS011;38483;42.620;25.394;2024-01-10T05:40:22;11.43;;;5.57;;
52590;SDS011;38483;42.620;25.394;2024-01-10T05:42:50;8.27;;;4.87;;
52590;SDS011;38483;42.620;25.394;2024-01-10T05:45:16;13.67;;;5.27;;
52590;SDS011;38483;42.620;25.394;2024-01-10T05:47:45;11.50;;;5.00;;
52590;SDS011;38483;42.620;25.394;2024-01-10T05:50:12;13.83;;;5.77;;
52590;SDS011;38483;42.620;25.394;2024-01-10T05:52:39;9.37;;;5.40;;
52590;SDS011;38483;42.620;25.394;2024-01-10T05:55:06;9.67;;;5.10;;
52590;SDS011;38483;42.620;25.394;2024-01-10T05:57:38;13.13;;;6.20;;
52590;SDS011;38483;42.620;25.394;2024-01-10T06:00:06;14.73;;;7.17;;
52590;SDS011;38483;42.620;25.394;2024-01-10T06:02:37;13.67;;;6.30;;
52590;SDS011;38483;42.620;25.394;2024-01-10T06:05:07;8.37;;;4.77;;
52590;SDS011;38483;42.620;25.394;2024-01-10T06:07:36;15.93;;;6.23;;
52590;SDS011;38483;42.620;25.394;2024-01-10T06:10:09;17.10;;;6.83;;
52590;SDS011;38483;42.620;25.394;2024-01-10T06:12:36;20.73;;;7.43;;
52590;SDS011;38483;42.620;25.394;2024-01-10T06:15:04;13.83;;;7.77;;
52590;SDS011;38483;42.620;25.394;2024-01-10T06:17:33;16.70;;;8.73;;
52590;SDS011;38483;42.620;25.394;2024-01-10T06:20:00;14.63;;;8.20;;
52590;SDS011;38483;42.620;25.394;2024-01-10T06:22:29;11.10;;;5.20;;
52590;SDS011;38483;42.620;25.394;2024-01-10T06:24:57;12.13;;;6.03;;
52590;SDS011;38483;42.620;25.394;2024-01-10T06:27:24;11.80;;;4.70;;
52590;SDS011;38483;42.620;25.394;2024-01-10T06:29:51;12.50;;;5.07;;
52590;SDS011;38483;42.620;25.394;2024-01-10T06:32:18;8.43;;;5.20;;
52590;SDS011;38483;42.620;25.394;2024-01-10T06:34:45;8.97;;;4.50;;
52590;SDS011;38483;42.620;25.394;2024-01-10T06:37:12;7.27;;;5.03;;
52590;SDS011;38483;42.620;25.394;2024-01-10T06:39:39;6.83;;;4.17;;
52590;SDS011;38483;42.620;25.394;2024-01-10T06:42:08;14.47;;;4.63;;
52590;SDS011;38483;42.620;25.394;2024-01-10T06:44:38;9.97;;;5.23;;
52590;SDS011;38483;42.620;25.394;2024-01-10T06:47:05;8.23;;;4.83;;
52590;SDS011;38483;42.620;25.394;2024-01-10T06:49:33;12.93;;;6.40;;
52590;SDS011;38483;42.620;25.394;2024-01-10T06:52:00;13.37;;;6.40;;
52590;SDS011;38483;42.620;25.394;2024-01-10T06:54:27;11.90;;;7.30;;
52590;SDS011;38483;42.620;25.394;2024-01-10T06:56:54;17.00;;;8.70;;
52590;SDS011;38483;42.620;25.394;2024-01-10T06:59:21;15.43;;;9.53;;
52590;SDS011;38483;42.620;25.394;2024-01-10T07:01:52;20.90;;;8.90;;
52590;SDS011;38483;42.620;25.394;2024-01-10T07:04:20;23.20;;;9.57;;
52590;SDS011;38483;42.620;25.394;2024-01-10T07:06:51;15.97;;;8.77;;
52590;SDS011;38483;42.620;25.394;2024-01-10T07:09:18;12.47;;;8.23;;
52590;SDS011;38483;42.620;25.394;2024-01-10T07:11:47;13.87;;;6.60;;
52590;SDS011;38483;42.620;25.394;2024-01-10T07:14:14;11.90;;;5.57;;
52590;SDS011;38483;42.620;25.394;2024-01-10T07:16:43;16.43;;;8.13;;
52590;SDS011;38483;42.620;25.394;2024-01-10T07:19:13;12.93;;;6.00;;
52590;SDS011;38483;42.620;25.394;2024-01-10T07:21:41;10.63;;;6.33;;
52590;SDS011;38483;42.620;25.394;2024-01-10T07:24:09;40.40;;;7.43;;
52590;SDS011;38483;42.620;25.394;2024-01-10T07:26:40;16.83;;;6.60;;
52590;SDS011;38483;42.620;25.394;2024-01-10T07:29:07;11.60;;;6.63;;
52590;SDS011;38483;42.620;25.394;2024-01-10T07:31:35;11.37;;;6.97;;
52590;SDS011;38483;42.620;25.394;2024-01-10T07:34:03;19.87;;;8.87;;
52590;SDS011;38483;42.620;25.394;2024-01-10T07:36:40;9.50;;;6.10;;
52590;SDS011;38483;42.620;25.394;2024-01-10T07:39:09;15.67;;;7.13;;
52590;SDS011;38483;42.620;25.394;2024-01-10T07:41:36;13.40;;;6.43;;
52590;SDS011;38483;42.620;25.394;2024-01-10T07:44:04;10.50;;;5.90;;
52590;SDS011;38483;42.620;25.394;2024-01-10T07:46:32;11.87;;;7.07;;
52590;SDS011;38483;42.620;25.394;2024-01-10T07:49:01;16.50;;;7.17;;
52590;SDS011;38483;42.620;25.394;2024-01-10T07:51:28;9.30;;;6.20;;
52590;SDS011;38483;42.620;25.394;2024-01-10T07:53:58;12.60;;;6.67;;
52590;SDS011;38483;42.620;25.394;2024-01-10T07:56:26;12.27;;;7.03;;
52590;SDS011;38483;42.620;25.394;2024-01-10T07:58:54;19.50;;;7.17;;
52590;SDS011;38483;42.620;25.394;2024-01-10T08:01:22;10.03;;;5.70;;
52590;SDS011;38483;42.620;25.394;2024-01-10T08:03:50;10.03;;;6.57;;
52590;SDS011;38483;42.620;25.394;2024-01-10T08:06:17;10.90;;;6.13;;
52590;SDS011;38483;42.620;25.394;2024-01-10T08:08:55;10.40;;;5.60;;
52590;SDS011;38483;42.620;25.394;2024-01-10T08:11:22;14.67;;;6.37;;
52590;SDS011;38483;42.620;25.394;2024-01-10T08:13:52;11.87;;;6.47;;
52590;SDS011;38483;42.620;25.394;2024-01-10T08:16:19;10.77;;;5.87;;
52590;SDS011;38483;42.620;25.394;2024-01-10T08:18:47;9.47;;;6.33;;
52590;SDS011;38483;42.620;25.394;2024-01-10T08:21:15;13.57;;;6.23;;
52590;SDS011;38483;42.620;25.394;2024-01-10T08:23:42;13.37;;;6.07;;
52590;SDS011;38483;42.620;25.394;2024-01-10T08:26:10;15.37;;;6.83;;
52590;SDS011;38483;42.620;25.394;2024-01-10T08:28:38;13.33;;;5.87;;
52590;SDS011;38483;42.620;25.394;2024-01-10T08:31:06;16.97;;;7.60;;
52590;SDS011;38483;42.620;25.394;2024-01-10T08:33:34;15.07;;;7.63;;
52590;SDS011;38483;42.620;25.394;2024-01-10T08:36:01;20.67;;;8.57;;
52590;SDS011;38483;42.620;25.394;2024-01-10T08:38:29;15.73;;;9.27;;
52590;SDS011;38483;42.620;25.394;2024-01-10T08:40:56;17.20;;;8.60;;
52590;SDS011;38483;42.620;25.394;2024-01-10T08:43:23;17.10;;;8.87;;
52590;SDS011;38483;42.620;25.394;2024-01-10T08:45:51;16.93;;;9.57;;
52590;SDS011;38483;42.620;25.394;2024-01-10T08:48:18;17.37;;;9.27;;
52590;SDS011;38483;42.620;25.394;2024-01-10T08:50:45;16.27;;;8.90;;
52590;SDS011;38483;42.620;25.394;2024-01-10T08:53:13;20.80;;;10.23;;
52590;SDS011;38483;42.620;25.394;2024-01-10T08:55:42;17.87;;;9.33;;
52590;SDS011;38483;42.620;25.394;2024-01-10T08:58:09;16.07;;;8.77;;
52590;SDS011;38483;42.620;25.394;2024-01-10T09:00:37;13.07;;;7.40;;
52590;SDS011;38483;42.620;25.394;2024-01-10T09:03:04;16.37;;;7.23;;
52590;SDS011;38483;42.620;25.394;2024-01-10T09:05:31;11.90;;;6.77;;
52590;SDS011;38483;42.620;25.394;2024-01-10T09:08:00;18.73;;;9.80;;
52590;SDS011;38483;42.620;25.394;2024-01-10T09:10:27;15.40;;;8.63;;
52590;SDS011;38483;42.620;25.394;2024-01-10T09:12:58;18.93;;;9.27;;
52590;SDS011;38483;42.620;25.394;2024-01-10T09:15:25;13.40;;;7.77;;
52590;SDS011;38483;42.620;25.394;2024-01-10T09:17:52;12.20;;;7.07;;
52590;SDS011;38483;42.620;25.394;2024-01-10T09:20:20;13.97;;;7.43;;
52590;SDS011;38483;42.620;25.394;2024-01-10T09:22:47;18.40;;;8.87;;
52590;SDS011;38483;42.620;25.394;2024-01-10T09:25:16;25.83;;;9.67;;
52590;SDS011;38483;42.620;25.394;2024-01-10T09:27:44;15.20;;;7.70;;
52590;SDS011;38483;42.620;25.394;2024-01-10T09:30:13;12.73;;;7.30;;
52590;SDS011;38483;42.620;25.394;2024-01-10T09:32:44;12.13;;;6.57;;
52590;SDS011;38483;42.620;25.394;2024-01-10T09:35:15;11.00;;;6.10;;
52590;SDS011;38483;42.620;25.394;2024-01-10T09:37:43;11.53;;;6.70;;
52590;SDS011;38483;42.620;25.394;2024-01-10T09:40:13;13.83;;;5.97;;
52590;SDS011;38483;42.620;25.394;2024-01-10T09:42:44;14.13;;;7.17;;
52590;SDS011;38483;42.620;25.394;2024-01-10T09:45:13;17.90;;;8.17;;
52590;SDS011;38483;42.620;25.394;2024-01-10T09:47:45;11.37;;;6.43;;
52590;SDS011;38483;42.620;25.394;2024-01-10T09:50:23;9.00;;;4.67;;
52590;SDS011;38483;42.620;25.394;2024-01-10T09:52:58;10.20;;;5.80;;
52590;SDS011;38483;42.620;25.394;2024-01-10T09:55:34;12.90;;;6.73;;
52590;SDS011;38483;42.620;25.394;2024-01-10T09:58:04;12.07;;;6.07;;
52590;SDS011;38483;42.620;25.394;2024-01-10T10:00:33;10.93;;;6.47;;
52590;SDS011;38483;42.620;25.394;2024-01-10T10:03:04;11.17;;;6.50;;
52590;SDS011;38483;42.620;25.394;2024-01-10T10:05:34;9.67;;;5.77;;
52590;SDS011;38483;42.620;25.394;2024-01-10T10:08:02;11.40;;;6.00;;
52590;SDS011;38483;42.620;25.394;2024-01-10T10:10:30;10.83;;;4.67;;
52590;SDS011;38483;42.620;25.394;2024-01-10T10:12:57;8.67;;;5.40;;
52590;SDS011;38483;42.620;25.394;2024-01-10T10:15:25;9.00;;;5.80;;
52590;SDS011;38483;42.620;25.394;2024-01-10T10:17:55;13.67;;;6.77;;
52590;SDS011;38483;42.620;25.394;2024-01-10T10:22:57;13.10;;;6.17;;
52590;SDS011;38483;42.620;25.394;2024-01-10T10:25:29;9.67;;;5.33;;
52590;SDS011;38483;42.620;25.394;2024-01-10T10:27:58;10.33;;;5.70;;
52590;SDS011;38483;42.620;25.394;2024-01-10T10:30:28;9.03;;;4.97;;
52590;SDS011;38483;42.620;25.394;2024-01-10T10:32:58;10.27;;;5.73;;
52590;SDS011;38483;42.620;25.394;2024-01-10T10:35:25;12.43;;;7.30;;
52590;SDS011;38483;42.620;25.394;2024-01-10T10:38:07;10.37;;;5.93;;
52590;SDS011;38483;42.620;25.394;2024-01-10T10:40:36;7.33;;;4.30;;
52590;SDS011;38483;42.620;25.394;2024-01-10T10:43:03;8.20;;;4.67;;
52590;SDS011;38483;42.620;25.394;2024-01-10T10:45:32;8.53;;;4.93;;
52590;SDS011;38483;42.620;25.394;2024-01-10T10:48:00;9.63;;;4.80;;
52590;SDS011;38483;42.620;25.394;2024-01-10T10:50:34;8.70;;;4.63;;
52590;SDS011;38483;42.620;25.394;2024-01-10T10:53:03;6.87;;;4.23;;
52590;SDS011;38483;42.620;25.394;2024-01-10T10:55:32;7.97;;;4.47;;
52590;SDS011;38483;42.620;25.394;2024-01-10T10:58:03;10.17;;;4.30;;
52590;SDS011;38483;42.620;25.394;2024-01-10T11:00:38;8.83;;;5.60;;
52590;SDS011;38483;42.620;25.394;2024-01-10T11:03:09;9.03;;;5.13;;
52590;SDS011;38483;42.620;25.394;2024-01-10T11:05:39;9.27;;;5.43;;
52590;SDS011;38483;42.620;25.394;2024-01-10T11:08:12;10.23;;;6.30;;
52590;SDS011;38483;42.620;25.394;2024-01-10T11:10:44;11.03;;;5.43;;
52590;SDS011;38483;42.620;25.394;2024-01-10T11:13:28;8.77;;;4.73;;
52590;SDS011;38483;42.620;25.394;2024-01-10T11:24:33;8.30;;;4.77;;
52590;SDS011;38483;42.620;25.394;2024-01-10T11:27:07;9.87;;;4.97;;
52590;SDS011;38483;42.620;25.394;2024-01-10T11:29:38;13.00;;;5.97;;
52590;SDS011;38483;42.620;25.394;2024-01-10T11:32:15;10.83;;;6.00;;
52590;SDS011;38483;42.620;25.394;2024-01-10T11:34:59;12.23;;;6.47;;
52590;SDS011;38483;42.620;25.394;2024-01-10T11:37:43;13.47;;;6.20;;
52590;SDS011;38483;42.620;25.394;2024-01-10T11:40:12;14.00;;;7.60;;
52590;SDS011;38483;42.620;25.394;2024-01-10T11:42:43;19.03;;;7.07;;
52590;SDS011;38483;42.620;25.394;2024-01-10T11:48:03;17.87;;;7.90;;
52590;SDS011;38483;42.620;25.394;2024-01-10T11:50:30;17.03;;;7.03;;
52590;SDS011;38483;42.620;25.394;2024-01-10T11:52:58;18.30;;;7.27;;
52590;SDS011;38483;42.620;25.394;2024-01-10T11:58:19;15.60;;;6.93;;
52590;SDS011;38483;42.620;25.394;2024-01-10T12:00:46;18.07;;;6.87;;
52590;SDS011;38483;42.620;25.394;2024-01-10T12:03:14;15.90;;;7.57;;
52590;SDS011;38483;42.620;25.394;2024-01-10T12:05:43;21.47;;;8.57;;
52590;SDS011;38483;42.620;25.394;2024-01-10T12:08:10;19.10;;;8.50;;
52590;SDS011;38483;42.620;25.394;2024-01-10T12:10:46;18.07;;;9.13;;
52590;SDS011;38483;42.620;25.394;2024-01-10T12:13:13;12.57;;;6.83;;
52590;SDS011;38483;42.620;25.394;2024-01-10T12:15:42;14.17;;;6.70;;
52590;SDS011;38483;42.620;25.394;2024-01-10T12:18:10;14.27;;;6.20;;
52590;SDS011;38483;42.620;25.394;2024-01-10T12:20:38;17.97;;;6.90;;
52590;SDS011;38483;42.620;25.394;2024-01-10T12:23:06;15.50;;;7.33;;
52590;SDS011;38483;42.620;25.394;2024-01-10T12:25:33;11.57;;;6.43;;
52590;SDS011;38483;42.620;25.394;2024-01-10T12:28:01;12.83;;;6.47;;
52590;SDS011;38483;42.620;25.394;2024-01-10T12:30:31;10.30;;;5.87;;
52590;SDS011;38483;42.620;25.394;2024-01-10T12:33:00;12.63;;;7.10;;
52590;SDS011;38483;42.620;25.394;2024-01-10T12:35:28;12.07;;;6.30;;
52590;SDS011;38483;42.620;25.394;2024-01-10T12:37:56;13.90;;;6.90;;
52590;SDS011;38483;42.620;25.394;2024-01-10T12:40:23;13.43;;;6.67;;
52590;SDS011;38483;42.620;25.394;2024-01-10T12:43:01;14.03;;;7.20;;
52590;SDS011;38483;42.620;25.394;2024-01-10T12:45:33;20.87;;;8.10;;
52590;SDS011;38483;42.620;25.394;2024-01-10T12:48:00;15.30;;;7.03;;
52590;SDS011;38483;42.620;25.394;2024-01-10T12:50:28;14.47;;;6.43;;
52590;SDS011;38483;42.620;25.394;2024-01-10T12:52:55;15.03;;;7.10;;
52590;SDS011;38483;42.620;25.394;2024-01-10T12:55:26;11.97;;;5.67;;
52590;SDS011;38483;42.620;25.394;2024-01-10T12:57:54;13.73;;;7.07;;
52590;SDS011;38483;42.620;25.394;2024-01-10T13:00:28;16.70;;;7.80;;
52590;SDS011;38483;42.620;25.394;2024-01-10T13:02:56;14.80;;;6.27;;
52590;SDS011;38483;42.620;25.394;2024-01-10T13:05:23;15.17;;;5.97;;
52590;SDS011;38483;42.620;25.394;2024-01-10T13:07:50;9.87;;;5.43;;
52590;SDS011;38483;42.620;25.394;2024-01-10T13:10:18;13.10;;;6.43;;
52590;SDS011;38483;42.620;25.394;2024-01-10T13:12:45;10.80;;;5.73;;
52590;SDS011;38483;42.620;25.394;2024-01-10T13:15:14;12.73;;;5.70;;
52590;SDS011;38483;42.620;25.394;2024-01-10T13:17:41;10.07;;;5.33;;
52590;SDS011;38483;42.620;25.394;2024-01-10T13:20:09;11.67;;;6.40;;
52590;SDS011;38483;42.620;25.394;2024-01-10T13:22:36;15.53;;;7.60;;
52590;SDS011;38483;42.620;25.394;2024-01-10T13:25:04;12.43;;;6.07;;
52590;SDS011;38483;42.620;25.394;2024-01-10T13:27:32;13.33;;;6.20;;
52590;SDS011;38483;42.620;25.394;2024-01-10T13:29:59;13.53;;;6.07;;
52590;SDS011;38483;42.620;25.394;2024-01-10T13:32:26;14.20;;;6.33;;
52590;SDS011;38483;42.620;25.394;2024-01-10T13:34:54;16.43;;;6.20;;
52590;SDS011;38483;42.620;25.394;2024-01-10T13:37:21;9.67;;;5.60;;
52590;SDS011;38483;42.620;25.394;2024-01-10T13:39:49;10.77;;;6.03;;
52590;SDS011;38483;42.620;25.394;2024-01-10T13:42:18;12.90;;;6.33;;
52590;SDS011;38483;42.620;25.394;2024-01-10T13:44:45;14.83;;;6.80;;
52590;SDS011;38483;42.620;25.394;2024-01-10T13:47:18;10.33;;;5.97;;
52590;SDS011;38483;42.620;25.394;2024-01-10T13:49:45;11.27;;;6.20;;
52590;SDS011;38483;42.620;25.394;2024-01-10T13:52:12;10.47;;;6.20;;
52590;SDS011;38483;42.620;25.394;2024-01-10T13:54:39;9.10;;;5.23;;
52590;SDS011;38483;42.620;25.394;2024-01-10T13:57:06;12.40;;;6.83;;
52590;SDS011;38483;42.620;25.394;2024-01-10T13:59:34;15.17;;;7.83;;
52590;SDS011;38483;42.620;25.394;2024-01-10T14:02:01;13.63;;;7.33;;
52590;SDS011;38483;42.620;25.394;2024-01-10T14:04:28;12.80;;;6.53;;
52590;SDS011;38483;42.620;25.394;2024-01-10T14:06:55;13.77;;;7.17;;
52590;SDS011;38483;42.620;25.394;2024-01-10T14:09:22;10.53;;;5.57;;
52590;SDS011;38483;42.620;25.394;2024-01-10T14:11:50;8.73;;;5.13;;
52590;SDS011;38483;42.620;25.394;2024-01-10T14:14:17;11.87;;;6.30;;
52590;SDS011;38483;42.620;25.394;2024-01-10T14:16:47;10.23;;;6.27;;
52590;SDS011;38483;42.620;25.394;2024-01-10T14:19:14;9.73;;;5.70;;
52590;SDS011;38483;42.620;25.394;2024-01-10T14:21:45;9.57;;;4.93;;
52590;SDS011;38483;42.620;25.394;2024-01-10T14:24:14;11.83;;;6.40;;
52590;SDS011;38483;42.620;25.394;2024-01-10T14:26:42;9.63;;;5.67;;
52590;SDS011;38483;42.620;25.394;2024-01-10T14:29:10;12.47;;;7.60;;
52590;SDS011;38483;42.620;25.394;2024-01-10T14:31:37;16.60;;;7.37;;
52590;SDS011;38483;42.620;25.394;2024-01-10T14:34:08;10.47;;;5.73;;
52590;SDS011;38483;42.620;25.394;2024-01-10T14:36:37;8.53;;;4.67;;
52590;SDS011;38483;42.620;25.394;2024-01-10T14:39:04;5.87;;;4.23;;
52590;SDS011;38483;42.620;25.394;2024-01-10T14:41:34;7.63;;;4.57;;
52590;SDS011;38483;42.620;25.394;2024-01-10T14:44:01;8.07;;;4.63;;
52590;SDS011;38483;42.620;25.394;2024-01-10T14:46:30;9.50;;;5.43;;
52590;SDS011;38483;42.620;25.394;2024-01-10T14:48:59;12.23;;;6.03;;